Time;durP1;ratioP1;P1;durP2;ratioP2;P2;SDS_P1;SDS_P2;PMS_P1;PMS_P2;Temp;Humidity;BMP_temperature;BMP_pressure;BME280_temperature;BME280_humidity;BME280_pressure;Samples;Min_cycle;Max_cycle;Signal;HPM_P1;HPM_P2
2023/01/26 00:01:59;;;;;;;;;;;103.10;2227.20;;;;;;5039991;28;19905;-78
2023/01/26 00:04:24;;;;;;;;;;;103.10;2227.20;;;;;;5023583;28;19991;-78
2023/01/26 00:06:50;;;;;;;;;;;103.00;2227.20;;;;;;5026540;28;19905;-78
2023/01/26 00:09:15;;;;;;;;;;;103.00;2227.20;;;;;;5028134;28;20371;-78
2023/01/26 00:11:41;;;;;;;;;;;103.00;2227.20;;;;;;5023662;28;19913;-78
2023/01/26 00:14:07;;;;;;;;;;;102.90;2227.20;;;;;;5019440;28;19988;-78
2023/01/26 00:16:32;;;;;;;;;;;102.90;2227.20;;;;;;5026285;28;20294;-78
2023/01/26 00:18:58;;;;;;;;;;;102.90;2227.20;;;;;;5020886;28;19952;-78
2023/01/26 00:21:24;;;;;;;;;;;102.80;2227.20;;;;;;5020686;28;19909;-78
2023/01/26 00:23:50;;;;;;;;;;;102.70;2227.20;;;;;;5024678;28;19916;-78
2023/01/26 00:26:18;;;;;;;;;;;102.70;2227.20;;;;;;5024243;28;20353;-78
2023/01/26 00:28:44;;;;;;;;;;;102.70;2227.20;;;;;;5022497;28;19984;-78
2023/01/26 00:31:11;;;;;;;;;;;102.70;2227.20;;;;;;5026773;28;19913;-78
2023/01/26 00:33:37;;;;;;;;;;;102.60;2227.20;;;;;;5028705;28;19919;-79
2023/01/26 00:36:03;;;;;;;;;;;102.70;2227.20;;;;;;5028300;28;19905;-78
2023/01/26 00:38:28;;;;;;;;;;;102.60;2227.20;;;;;;5020362;28;19905;-78
2023/01/26 00:40:54;;;;;;;;;;;102.50;2227.20;;;;;;5038691;28;20314;-78
2023/01/26 00:43:20;;;;;;;;;;;102.50;2227.20;;;;;;5036868;28;19905;-78
2023/01/26 00:45:45;;;;;;;;;;;102.50;2227.20;;;;;;5024151;28;19944;-78
2023/01/26 00:48:11;;;;;;;;;;;102.40;2227.20;;;;;;5038253;28;19912;-78
2023/01/26 00:50:36;;;;;;;;;;;102.40;2227.20;;;;;;5024684;28;19917;-78
2023/01/26 00:53:02;;;;;;;;;;;102.40;2227.20;;;;;;5019563;28;19913;-79
2023/01/26 00:55:31;;;;;;;;;;;77.70;2227.20;;;;;;5022452;28;20373;-78
2023/01/26 00:58:03;;;;;;;;;;;77.70;2227.20;;;;;;5020866;28;20386;-77
2023/01/26 01:00:30;;;;;;;;;;;102.40;2227.20;;;;;;5033108;28;19905;-78
2023/01/26 01:02:55;;;;;;;;;;;77.70;2227.20;;;;;;5033738;28;19905;-78
2023/01/26 01:05:22;;;;;;;;;;;77.70;2227.20;;;;;;5033678;28;19905;-77
2023/01/26 01:07:47;;;;;;;;;;;77.70;2227.20;;;;;;5033928;28;19909;-78
2023/01/26 01:10:13;;;;;;;;;;;102.40;2227.20;;;;;;5033794;28;20008;-78
2023/01/26 01:12:38;;;;;;;;;;;77.70;2227.20;;;;;;5034215;28;19934;-78
2023/01/26 01:15:04;;;;;;;;;;;77.70;2227.20;;;;;;5032410;28;19963;-78
2023/01/26 01:17:30;;;;;;;;;;;102.40;2227.20;;;;;;5033847;28;19975;-77
2023/01/26 01:19:55;;;;;;;;;;;77.70;2227.20;;;;;;5033274;28;19916;-78
2023/01/26 01:22:21;;;;;;;;;;;77.70;2227.20;;;;;;5033498;28;20278;-78
2023/01/26 01:24:47;;;;;;;;;;;77.70;2227.20;;;;;;5037526;28;19904;-78
2023/01/26 01:27:12;;;;;;;;;;;77.70;2227.20;;;;;;5037279;28;19905;-78
2023/01/26 01:29:38;;;;;;;;;;;77.70;2227.20;;;;;;5036603;28;19905;-78
2023/01/26 01:32:03;;;;;;;;;;;77.70;2227.20;;;;;;5037578;28;20035;-78
2023/01/26 01:34:29;;;;;;;;;;;77.60;2227.20;;;;;;5037111;28;19986;-79
2023/01/26 01:36:55;;;;;;;;;;;77.60;2227.20;;;;;;5036952;28;19940;-78
2023/01/26 01:39:20;;;;;;;;;;;77.60;2227.20;;;;;;5036532;28;19905;-79
2023/01/26 01:41:46;;;;;;;;;;;77.70;2227.20;;;;;;5036856;28;19904;-77
2023/01/26 01:44:14;;;;;;;;;;;77.60;2227.20;;;;;;5029525;28;19917;-78
2023/01/26 01:46:44;;;;;;;;;;;77.70;2227.20;;;;;;5037033;28;19908;-78
2023/01/26 01:49:16;;;;;;;;;;;77.70;2227.20;;;;;;5046435;28;19909;-78
2023/01/26 01:52:08;;;;;;;;;;;77.70;2227.20;;;;;;5036316;28;20378;-78
2023/01/26 01:54:37;;;;;;;;;;;77.70;2227.20;;;;;;5049555;28;19936;-78
2023/01/26 01:57:14;;;;;;;;;;;77.70;2227.20;;;;;;5035927;28;19920;-78
2023/01/26 01:59:44;;;;;;;;;;;77.70;2227.20;;;;;;5034168;28;20484;-78
2023/01/26 02:02:10;;;;;;;;;;;102.40;2227.20;;;;;;5036534;28;19904;-78
2023/01/26 02:04:36;;;;;;;;;;;77.70;2227.20;;;;;;5036598;28;19911;-78
2023/01/26 02:07:01;;;;;;;;;;;77.70;2227.20;;;;;;5054390;28;20351;-78
2023/01/26 02:12:19;;;;;;;;;;;77.70;2227.20;;;;;;5054570;28;20420;-78
2023/01/26 02:14:45;;;;;;;;;;;77.60;2227.20;;;;;;5036197;28;20003;-78
2023/01/26 02:17:10;;;;;;;;;;;77.70;2227.20;;;;;;5035758;28;20421;-78
2023/01/26 02:19:39;;;;;;;;;;;77.70;2227.20;;;;;;5037302;28;20358;-78
2023/01/26 02:22:09;;;;;;;;;;;77.70;2227.20;;;;;;5037313;28;19916;-78
2023/01/26 02:24:36;;;;;;;;;;;77.70;2227.20;;;;;;5036165;28;20317;-77
2023/01/26 02:27:02;;;;;;;;;;;77.70;2227.20;;;;;;5054743;28;19905;-78
2023/01/26 02:29:27;;;;;;;;;;;77.70;2227.20;;;;;;5036999;28;19931;-78
2023/01/26 02:31:53;;;;;;;;;;;77.70;2227.20;;;;;;5036358;28;19951;-78
2023/01/26 02:34:19;;;;;;;;;;;102.40;2227.20;;;;;;5030634;28;20358;-78
2023/01/26 02:36:44;;;;;;;;;;;77.70;2227.20;;;;;;5054373;28;19940;-77
2023/01/26 02:39:29;;;;;;;;;;;102.40;2227.20;;;;;;5036692;28;19967;-78
2023/01/26 02:44:40;;;;;;;;;;;102.40;2227.20;;;;;;5054079;28;19931;-78
2023/01/26 02:47:10;;;;;;;;;;;102.40;2227.20;;;;;;5036598;28;19911;-78
2023/01/26 02:49:49;;;;;;;;;;;102.40;2227.20;;;;;;5028370;28;19956;-77
2023/01/26 02:52:16;;;;;;;;;;;102.40;2227.20;;;;;;5035455;28;19916;-77
2023/01/26 02:57:26;;;;;;;;;;;77.70;2227.20;;;;;;5052255;28;19911;-78
2023/01/26 02:59:52;;;;;;;;;;;102.40;2227.20;;;;;;5028369;28;19917;-78
2023/01/26 03:02:18;;;;;;;;;;;77.70;2227.20;;;;;;5035745;28;20384;-78
2023/01/26 03:04:43;;;;;;;;;;;77.70;2227.20;;;;;;5036236;28;19912;-78
2023/01/26 03:07:09;;;;;;;;;;;102.50;2227.20;;;;;;5035518;28;20282;-78
2023/01/26 03:09:35;;;;;;;;;;;102.50;2227.20;;;;;;5035658;28;19904;-78
2023/01/26 03:12:00;;;;;;;;;;;102.60;2227.20;;;;;;5036157;28;19913;-78
2023/01/26 03:14:26;;;;;;;;;;;102.60;2227.20;;;;;;5036010;28;19905;-77
2023/01/26 03:16:51;;;;;;;;;;;102.50;2227.20;;;;;;5036043;28;19904;-78
2023/01/26 03:27:34;;;;;;;;;;;102.40;2227.20;;;;;;5051663;28;19911;-78
2023/01/26 03:29:59;;;;;;;;;;;102.50;2227.20;;;;;;5027502;28;19905;-78
2023/01/26 03:32:25;;;;;;;;;;;102.50;2227.20;;;;;;5035841;28;20004;-77
2023/01/26 03:34:51;;;;;;;;;;;102.50;2227.20;;;;;;5053385;28;20415;-77
2023/01/26 03:37:21;;;;;;;;;;;102.50;2227.20;;;;;;5035449;28;19931;-77
2023/01/26 03:56:31;;;;;;;;;;;102.70;2227.20;;;;;;5052443;28;19912;-78
2023/01/26 03:59:07;;;;;;;;;;;102.60;2227.20;;;;;;5034036;28;20348;-78
2023/01/26 04:01:37;;;;;;;;;;;102.50;2227.20;;;;;;5028143;28;19951;-77
2023/01/26 04:09:32;;;;;;;;;;;102.50;2227.20;;;;;;5051299;28;20055;-77
2023/01/26 04:11:58;;;;;;;;;;;102.60;2227.20;;;;;;5027454;28;20019;-77
2023/01/26 04:22:43;;;;;;;;;;;102.80;2227.20;;;;;;5051494;28;19940;-77
2023/01/26 04:25:10;;;;;;;;;;;102.90;2227.20;;;;;;5028253;28;19959;-77
2023/01/26 04:27:36;;;;;;;;;;;102.80;2227.20;;;;;;5035228;28;20324;-78
2023/01/26 04:30:02;;;;;;;;;;;102.70;2227.20;;;;;;5027118;28;19905;-77
2023/01/26 04:32:28;;;;;;;;;;;102.80;2227.20;;;;;;5032515;28;19913;-78
2023/01/26 04:34:54;;;;;;;;;;;102.80;2227.20;;;;;;5038905;28;19935;-78
2023/01/26 04:37:19;;;;;;;;;;;102.80;2227.20;;;;;;5038891;28;19955;-77
2023/01/26 04:39:45;;;;;;;;;;;102.80;2227.20;;;;;;5038656;28;20385;-78
2023/01/26 04:42:10;;;;;;;;;;;102.90;2227.20;;;;;;5038813;28;19905;-78
2023/01/26 04:44:36;;;;;;;;;;;102.90;2227.20;;;;;;5038535;28;19912;-78
2023/01/26 04:47:01;;;;;;;;;;;102.80;2227.20;;;;;;5038755;28;20369;-77
2023/01/26 04:49:27;;;;;;;;;;;102.80;2227.20;;;;;;5038652;28;19978;-78
2023/01/26 04:51:53;;;;;;;;;;;102.80;2227.20;;;;;;5056262;28;19939;-78
2023/01/26 04:54:18;;;;;;;;;;;102.80;2227.20;;;;;;5038441;28;19904;-78
2023/01/26 04:56:44;;;;;;;;;;;102.80;2227.20;;;;;;5056303;28;19904;-78
2023/01/26 04:59:10;;;;;;;;;;;102.90;2227.20;;;;;;5038263;28;20441;-78
2023/01/26 05:01:36;;;;;;;;;;;102.90;2227.20;;;;;;5056191;28;19905;-78
2023/01/26 05:04:02;;;;;;;;;;;102.90;2227.20;;;;;;5038270;28;20305;-78
2023/01/26 05:06:27;;;;;;;;;;;102.90;2227.20;;;;;;5032860;28;20369;-78
2023/01/26 05:08:53;;;;;;;;;;;102.90;2227.20;;;;;;5056468;28;19904;-78
2023/01/26 05:11:19;;;;;;;;;;;102.90;2227.20;;;;;;5038123;28;20373;-77
2023/01/26 05:13:46;;;;;;;;;;;103.00;2227.20;;;;;;5037555;28;20000;-78
2023/01/26 05:16:13;;;;;;;;;;;102.90;2227.20;;;;;;5038070;28;19904;-78
2023/01/26 05:18:42;;;;;;;;;;;102.90;2227.20;;;;;;5038143;28;19999;-78
2023/01/26 05:21:08;;;;;;;;;;;103.00;2227.20;;;;;;5029186;28;20373;-77
2023/01/26 05:23:33;;;;;;;;;;;103.00;2227.20;;;;;;5034528;28;19908;-78
2023/01/26 05:25:59;;;;;;;;;;;103.00;2227.20;;;;;;5037048;28;20350;-78
2023/01/26 05:28:24;;;;;;;;;;;102.90;2227.20;;;;;;5055884;28;20382;-78
2023/01/26 05:30:50;;;;;;;;;;;103.00;2227.20;;;;;;5037819;28;19913;-78
2023/01/26 05:33:20;;;;;;;;;;;103.10;2227.20;;;;;;5037490;28;19909;-77
2023/01/26 05:35:49;;;;;;;;;;;103.10;2227.20;;;;;;5037760;28;19905;-78
2023/01/26 05:38:14;;;;;;;;;;;103.10;2227.20;;;;;;5032657;28;19905;-78
2023/01/26 05:40:40;;;;;;;;;;;103.00;2227.20;;;;;;5037723;28;20250;-78
2023/01/26 05:43:07;;;;;;;;;;;103.00;2227.20;;;;;;5055631;28;19905;-78
2023/01/26 05:45:33;;;;;;;;;;;103.00;2227.20;;;;;;5037393;28;19911;-78
2023/01/26 05:47:59;;;;;;;;;;;102.60;2227.20;;;;;;5037629;28;19915;-77
2023/01/26 05:50:24;;;;;;;;;;;102.70;2227.20;;;;;;5033427;28;19912;-78
2023/01/26 05:52:50;;;;;;;;;;;102.70;2227.20;;;;;;5035084;28;19917;-78
2023/01/26 05:55:16;;;;;;;;;;;102.60;2227.20;;;;;;5017160;28;19905;-78
2023/01/26 05:57:41;;;;;;;;;;;102.80;2227.20;;;;;;5017051;28;20382;-78
2023/01/26 06:00:07;;;;;;;;;;;102.80;2227.20;;;;;;5034850;28;20481;-78
2023/01/26 06:02:33;;;;;;;;;;;102.80;2227.20;;;;;;5034992;28;19915;-78
2023/01/26 06:04:59;;;;;;;;;;;102.80;2227.20;;;;;;5034873;28;19952;-78
2023/01/26 06:07:25;;;;;;;;;;;102.80;2227.20;;;;;;5034672;28;20019;-78
2023/01/26 06:09:51;;;;;;;;;;;102.70;2227.20;;;;;;5034000;28;20333;-78
2023/01/26 06:12:17;;;;;;;;;;;102.70;2227.20;;;;;;5033310;28;20024;-79
2023/01/26 06:14:43;;;;;;;;;;;102.70;2227.20;;;;;;5043145;28;20007;-78
2023/01/26 06:17:09;;;;;;;;;;;102.60;2227.20;;;;;;5056218;28;19940;-78
2023/01/26 06:19:36;;;;;;;;;;;102.70;2227.20;;;;;;5054538;28;19951;-79
2023/01/26 06:22:02;;;;;;;;;;;102.60;2227.20;;;;;;5035705;28;19913;-78
2023/01/26 06:24:28;;;;;;;;;;;102.50;2227.20;;;;;;5033758;28;19909;-78
2023/01/26 06:26:54;;;;;;;;;;;102.50;2227.20;;;;;;5020308;28;19929;-77
2023/01/26 06:29:19;;;;;;;;;;;102.50;2227.20;;;;;;5033816;28;19905;-78
2023/01/26 06:31:45;;;;;;;;;;;102.50;2227.20;;;;;;5033774;28;19917;-79
2023/01/26 06:34:10;;;;;;;;;;;102.40;2227.20;;;;;;5032539;28;19912;-77
2023/01/26 06:36:36;;;;;;;;;;;77.70;2227.20;;;;;;5032184;28;19905;-78
2023/01/26 06:39:02;;;;;;;;;;;77.70;2227.20;;;;;;5032543;28;20270;-78
2023/01/26 06:41:27;;;;;;;;;;;102.40;2227.20;;;;;;5039330;28;19905;-77
2023/01/26 06:43:53;;;;;;;;;;;102.40;2227.20;;;;;;5037724;28;19984;-78
2023/01/26 06:46:19;;;;;;;;;;;102.40;2227.20;;;;;;5026168;28;19905;-77
2023/01/26 06:48:45;;;;;;;;;;;77.70;2227.20;;;;;;5025453;28;20417;-77
2023/01/26 06:51:16;;;;;;;;;;;102.40;2227.20;;;;;;5038061;28;19917;-78
2023/01/26 06:53:43;;;;;;;;;;;102.50;2227.20;;;;;;5035198;28;19909;-77
2023/01/26 06:56:08;;;;;;;;;;;102.50;2227.20;;;;;;5037341;28;19959;-78
2023/01/26 06:58:34;;;;;;;;;;;102.60;2227.20;;;;;;5036989;28;20310;-78
2023/01/26 07:00:59;;;;;;;;;;;102.70;2227.20;;;;;;5037006;28;19905;-78
2023/01/26 07:03:25;;;;;;;;;;;102.90;2227.20;;;;;;5025039;28;19909;-82
2023/01/26 07:05:52;;;;;;;;;;;102.90;2227.20;;;;;;5034349;28;19921;-82
2023/01/26 07:08:18;;;;;;;;;;;102.90;2227.20;;;;;;5037854;28;20278;-82
2023/01/26 07:10:43;;;;;;;;;;;103.00;2227.20;;;;;;5032598;28;20645;-80
2023/01/26 07:13:09;;;;;;;;;;;102.90;2227.20;;;;;;5035432;28;19904;-79
2023/01/26 07:15:34;;;;;;;;;;;102.90;2227.20;;;;;;5029825;28;19905;-79
2023/01/26 07:18:00;;;;;;;;;;;102.80;2227.20;;;;;;5034582;28;20283;-78
2023/01/26 07:20:26;;;;;;;;;;;103.00;2227.20;;;;;;5016681;28;19988;-77
2023/01/26 07:22:52;;;;;;;;;;;103.00;2227.20;;;;;;5052913;28;19909;-77
2023/01/26 07:25:17;;;;;;;;;;;103.10;2227.20;;;;;;5051148;28;19905;-78
2023/01/26 07:27:43;;;;;;;;;;;103.10;2227.20;;;;;;5035390;28;20370;-77
2023/01/26 07:30:09;;;;;;;;;;;103.20;2227.20;;;;;;5052814;28;19904;-78
2023/01/26 07:32:35;;;;;;;;;;;103.20;2227.20;;;;;;5052995;28;19909;-76
2023/01/26 07:35:00;;;;;;;;;;;103.30;2227.20;;;;;;5034984;28;20441;-80
2023/01/26 07:37:26;;;;;;;;;;;103.30;2227.20;;;;;;5035446;28;19991;-78
2023/01/26 07:39:52;;;;;;;;;;;128.00;2252.80;;;;;;5032884;28;19939;-78
2023/01/26 07:42:18;;;;;;;;;;;128.00;2252.80;;;;;;5034528;28;19912;-82
2023/01/26 07:44:43;;;;;;;;;;;103.30;2227.20;;;;;;5032340;28;19963;-78
2023/01/26 07:47:09;;;;;;;;;;;128.00;2252.80;;;;;;5052039;28;19974;-77
2023/01/26 07:49:34;;;;;;;;;;;128.00;2252.80;;;;;;5053368;28;19908;-80
2023/01/26 07:52:00;;;;;;;;;;;128.00;2252.80;;;;;;5035125;28;20359;-83
2023/01/26 07:54:26;;;;;;;;;;;128.00;2252.80;;;;;;5053279;28;20285;-79
2023/01/26 07:56:53;;;;;;;;;;;128.00;2252.80;;;;;;5053524;28;19999;-79
2023/01/26 07:59:19;;;;;;;;;;;103.30;2227.20;;;;;;5053548;28;20007;-79
2023/01/26 08:01:45;;;;;;;;;;;128.00;2252.80;;;;;;5035485;28;19909;-79
2023/01/26 08:04:11;;;;;;;;;;;128.00;2252.80;;;;;;5052833;28;19912;-77
2023/01/26 08:06:36;;;;;;;;;;;128.10;2252.80;;;;;;5052937;28;20270;-81
2023/01/26 08:09:02;;;;;;;;;;;128.20;2252.80;;;;;;5038061;28;19905;-79
2023/01/26 08:11:28;;;;;;;;;;;128.10;2252.80;;;;;;5057828;28;19986;-80
2023/01/26 08:13:54;;;;;;;;;;;128.10;2252.80;;;;;;5056678;28;19905;-79
2023/01/26 08:16:19;;;;;;;;;;;103.30;2227.20;;;;;;5051451;28;20413;-80
2023/01/26 08:18:45;;;;;;;;;;;103.30;2227.20;;;;;;5056883;28;20054;-78
2023/01/26 08:21:12;;;;;;;;;;;103.20;2227.20;;;;;;5056992;28;19905;-82
2023/01/26 08:23:37;;;;;;;;;;;103.20;2227.20;;;;;;5057089;28;19913;-81
2023/01/26 08:26:04;;;;;;;;;;;103.10;2227.20;;;;;;5038860;28;19912;-79
2023/01/26 08:28:30;;;;;;;;;;;103.10;2227.20;;;;;;5056912;28;19912;-84
2023/01/26 08:30:56;;;;;;;;;;;103.00;2227.20;;;;;;5056652;28;20304;-83
2023/01/26 08:33:22;;;;;;;;;;;102.90;2227.20;;;;;;5056682;28;19912;-83
2023/01/26 08:35:48;;;;;;;;;;;102.80;2227.20;;;;;;5057610;28;19909;-84
2023/01/26 08:38:13;;;;;;;;;;;103.00;2227.20;;;;;;5039539;28;20321;-80
2023/01/26 08:40:39;;;;;;;;;;;103.10;2227.20;;;;;;5038939;28;20312;-79
2023/01/26 08:43:04;;;;;;;;;;;103.00;2227.20;;;;;;5038766;28;19912;-81
2023/01/26 08:45:30;;;;;;;;;;;102.90;2227.20;;;;;;5038970;28;20338;-80
2023/01/26 08:47:56;;;;;;;;;;;103.00;2227.20;;;;;;5056832;28;19928;-79
2023/01/26 08:50:24;;;;;;;;;;;103.00;2227.20;;;;;;5037468;28;20022;-78
2023/01/26 08:52:49;;;;;;;;;;;103.00;2227.20;;;;;;5039021;28;19917;-80
2023/01/26 08:55:15;;;;;;;;;;;103.10;2227.20;;;;;;5038005;28;20243;-80
2023/01/26 08:57:40;;;;;;;;;;;103.00;2227.20;;;;;;5038337;28;19904;-80
2023/01/26 09:00:06;;;;;;;;;;;103.00;2227.20;;;;;;5038426;28;19916;-79
2023/01/26 09:02:32;;;;;;;;;;;103.20;2227.20;;;;;;5038376;28;20793;-79
2023/01/26 09:04:58;;;;;;;;;;;103.00;2227.20;;;;;;5037994;28;19915;-79
2023/01/26 09:07:23;;;;;;;;;;;103.10;2227.20;;;;;;5038127;28;20321;-79
2023/01/26 09:09:49;;;;;;;;;;;103.10;2227.20;;;;;;5038113;28;19978;-78
2023/01/26 09:12:14;;;;;;;;;;;103.00;2227.20;;;;;;5055468;28;19912;-79
2023/01/26 09:14:40;;;;;;;;;;;103.00;2227.20;;;;;;5029837;28;19959;-79
2023/01/26 09:17:06;;;;;;;;;;;102.90;2227.20;;;;;;5052633;28;19905;-79
2023/01/26 09:19:31;;;;;;;;;;;102.80;2227.20;;;;;;5037161;28;20029;-79
2023/01/26 09:21:57;;;;;;;;;;;102.80;2227.20;;;;;;5040015;28;19919;-79
2023/01/26 09:24:23;;;;;;;;;;;102.80;2227.20;;;;;;5037937;28;19912;-79
2023/01/26 09:26:48;;;;;;;;;;;102.90;2227.20;;;;;;5055806;28;19908;-79
2023/01/26 09:29:14;;;;;;;;;;;102.80;2227.20;;;;;;5037259;28;19905;-79
2023/01/26 09:31:40;;;;;;;;;;;102.80;2227.20;;;;;;5055496;28;20332;-78
2023/01/26 09:34:06;;;;;;;;;;;102.80;2227.20;;;;;;5045881;28;19912;-78
2023/01/26 09:36:32;;;;;;;;;;;102.90;2227.20;;;;;;5055195;28;20372;-78
2023/01/26 09:38:57;;;;;;;;;;;102.80;2227.20;;;;;;5037581;28;19911;-82
2023/01/26 09:41:35;;;;;;;;;;;102.80;2227.20;;;;;;5038029;28;19905;-79
2023/01/26 09:44:06;;;;;;;;;;;102.80;2227.20;;;;;;5034722;28;19912;-78
2023/01/26 09:46:35;;;;;;;;;;;102.80;2227.20;;;;;;5055011;28;19958;-78
2023/01/26 09:49:00;;;;;;;;;;;102.80;2227.20;;;;;;5037440;28;19928;-78
2023/01/26 09:51:35;;;;;;;;;;;102.80;2227.20;;;;;;5055149;28;20353;-77
2023/01/26 09:54:04;;;;;;;;;;;102.80;2227.20;;;;;;5027815;28;20003;-76
2023/01/26 09:56:31;;;;;;;;;;;102.70;2227.20;;;;;;5046639;28;19912;-77
2023/01/26 09:58:59;;;;;;;;;;;102.70;2227.20;;;;;;5054016;28;19943;-77
2023/01/26 10:01:43;;;;;;;;;;;102.80;2227.20;;;;;;5054801;28;20388;-75
2023/01/26 10:04:17;;;;;;;;;;;102.80;2227.20;;;;;;5054499;28;19905;-76
2023/01/26 10:06:43;;;;;;;;;;;102.70;2227.20;;;;;;5051389;28;19958;-77
2023/01/26 10:09:11;;;;;;;;;;;102.80;2227.20;;;;;;5053998;28;19908;-74
2023/01/26 10:11:49;;;;;;;;;;;102.80;2227.20;;;;;;5031903;28;19912;-76
2023/01/26 10:14:25;;;;;;;;;;;102.80;2227.20;;;;;;5054437;28;19952;-75
2023/01/26 10:16:52;;;;;;;;;;;102.70;2227.20;;;;;;5054000;28;19905;-76
2023/01/26 10:19:21;;;;;;;;;;;102.80;2227.20;;;;;;5054177;28;19948;-77
2023/01/26 10:21:49;;;;;;;;;;;102.80;2227.20;;;;;;5054063;28;19919;-75
2023/01/26 10:24:16;;;;;;;;;;;102.90;2227.20;;;;;;5053907;28;19944;-77
2023/01/26 10:26:42;;;;;;;;;;;102.80;2227.20;;;;;;5054106;28;20341;-78
2023/01/26 10:29:11;;;;;;;;;;;102.80;2227.20;;;;;;5035672;28;19963;-77
2023/01/26 10:31:37;;;;;;;;;;;102.90;2227.20;;;;;;5035037;28;19913;-75
2023/01/26 10:34:18;;;;;;;;;;;102.90;2227.20;;;;;;5053799;28;20354;-76
2023/01/26 10:36:44;;;;;;;;;;;102.80;2227.20;;;;;;5053628;28;19911;-76
2023/01/26 10:39:11;;;;;;;;;;;102.80;2227.20;;;;;;5053805;28;19966;-77
2023/01/26 10:41:37;;;;;;;;;;;102.80;2227.20;;;;;;5034091;28;20318;-76
2023/01/26 10:44:09;;;;;;;;;;;102.80;2227.20;;;;;;5020708;28;19991;-76
2023/01/26 10:46:36;;;;;;;;;;;102.90;2227.20;;;;;;5035593;28;19908;-76
2023/01/26 10:49:13;;;;;;;;;;;102.90;2227.20;;;;;;5035564;28;20282;-76
2023/01/26 10:52:03;;;;;;;;;;;102.90;2227.20;;;;;;5048928;28;19931;-78
2023/01/26 10:54:29;;;;;;;;;;;102.80;2227.20;;;;;;5034179;28;19912;-77
2023/01/26 10:56:58;;;;;;;;;;;102.80;2227.20;;;;;;5035632;28;19932;-78
2023/01/26 10:59:27;;;;;;;;;;;102.80;2227.20;;;;;;5035491;28;19924;-77
2023/01/26 11:01:55;;;;;;;;;;;102.80;2227.20;;;;;;5035204;28;19934;-76
2023/01/26 11:04:21;;;;;;;;;;;102.90;2227.20;;;;;;5053176;28;19904;-76
2023/01/26 11:06:46;;;;;;;;;;;102.90;2227.20;;;;;;5035403;28;19912;-76
2023/01/26 11:09:18;;;;;;;;;;;103.00;2227.20;;;;;;5035410;28;19905;-76
2023/01/26 11:11:59;;;;;;;;;;;103.10;2227.20;;;;;;5053252;28;19916;-77
2023/01/26 11:14:25;;;;;;;;;;;103.30;2227.20;;;;;;5024143;28;19909;-79
2023/01/26 11:17:06;;;;;;;;;;;103.20;2227.20;;;;;;5035142;28;19931;-76
2023/01/26 11:19:55;;;;;;;;;;;103.10;2227.20;;;;;;5050977;28;19927;-77
2023/01/26 11:22:39;;;;;;;;;;;103.20;2227.20;;;;;;5034222;28;20008;-77
2023/01/26 11:25:10;;;;;;;;;;;103.30;2227.20;;;;;;5027824;28;20009;-75
2023/01/26 11:27:52;;;;;;;;;;;103.20;2227.20;;;;;;5028629;28;19956;-76
2023/01/26 11:30:41;;;;;;;;;;;103.30;2227.20;;;;;;5032604;28;19905;-77
2023/01/26 11:33:10;;;;;;;;;;;103.20;2227.20;;;;;;5037095;28;19931;-76
2023/01/26 11:35:59;;;;;;;;;;;103.30;2227.20;;;;;;5026393;28;19905;-76
2023/01/26 11:38:30;;;;;;;;;;;103.30;2227.20;;;;;;4954182;28;19911;-76
2023/01/26 11:41:14;;;;;;;;;;;128.10;2252.80;;;;;;4939870;28;20475;-76
2023/01/26 11:43:46;;;;;;;;;;;128.20;2252.80;;;;;;4939984;29;20325;-77
2023/01/26 11:46:15;;;;;;;;;;;128.20;2252.80;;;;;;4938655;29;19917;-76
2023/01/26 11:48:58;;;;;;;;;;;128.00;2252.80;;;;;;4952128;28;19910;-76
2023/01/26 11:51:31;;;;;;;;;;;128.00;2252.80;;;;;;4961905;28;20368;-77
2023/01/26 11:54:15;;;;;;;;;;;128.00;2252.80;;;;;;4959845;28;19910;-77
2023/01/26 11:57:03;;;;;;;;;;;128.20;2252.80;;;;;;4953681;28;19911;-77
2023/01/26 11:59:34;;;;;;;;;;;128.30;2252.80;;;;;;4953010;28;19922;-77
2023/01/26 12:02:14;;;;;;;;;;;128.30;2252.80;;;;;;4956829;28;19907;-77
2023/01/26 12:04:44;;;;;;;;;;;128.20;2252.80;;;;;;4945893;28;19992;-78
2023/01/26 12:07:14;;;;;;;;;;;128.30;2252.80;;;;;;4958507;28;19937;-77
2023/01/26 12:09:45;;;;;;;;;;;128.30;2252.80;;;;;;4954363;28;19917;-77
2023/01/26 12:12:15;;;;;;;;;;;128.20;2252.80;;;;;;4940372;28;19949;-75
2023/01/26 12:14:50;;;;;;;;;;;128.30;2252.80;;;;;;4974059;28;19944;-77
2023/01/26 12:17:34;;;;;;;;;;;128.30;2252.80;;;;;;5018964;28;19984;-78
2023/01/26 12:20:05;;;;;;;;;;;128.20;2252.80;;;;;;5019412;28;19992;-78
2023/01/26 12:22:36;;;;;;;;;;;128.30;2252.80;;;;;;5025370;28;20497;-78
2023/01/26 12:25:07;;;;;;;;;;;128.30;2252.80;;;;;;5017752;28;19995;-79
2023/01/26 12:27:41;;;;;;;;;;;128.30;2252.80;;;;;;5021170;28;19905;-80
2023/01/26 12:30:20;;;;;;;;;;;128.30;2252.80;;;;;;5007886;28;19905;-80
2023/01/26 12:32:46;;;;;;;;;;;128.40;2252.80;;;;;;5001044;28;19921;-79
2023/01/26 12:35:12;;;;;;;;;;;128.40;2252.80;;;;;;5017396;28;20294;-80
2023/01/26 12:38:04;;;;;;;;;;;128.30;2252.80;;;;;;4995837;28;19905;-79
2023/01/26 12:40:44;;;;;;;;;;;128.40;2252.80;;;;;;4934168;29;19906;-79
2023/01/26 12:43:13;;;;;;;;;;;128.60;2252.80;;;;;;4930009;29;19907;-79
2023/01/26 12:45:41;;;;;;;;;;;128.70;2252.80;;;;;;4940252;29;19911;-80
2023/01/26 12:48:06;;;;;;;;;;;128.70;2252.80;;;;;;4940723;29;20250;-80
2023/01/26 12:50:40;;;;;;;;;;;128.90;2252.80;;;;;;4945250;29;19970;-79
2023/01/26 12:53:10;;;;;;;;;;;128.90;2252.80;;;;;;4935530;28;20033;-80
2023/01/26 12:55:39;;;;;;;;;;;128.90;2252.80;;;;;;4932688;29;19945;-80
2023/01/26 12:58:12;;;;;;;;;;;128.90;2252.80;;;;;;4949441;28;19918;-81
2023/01/26 13:00:37;;;;;;;;;;;128.90;2252.80;;;;;;4936943;29;19907;-79
2023/01/26 13:03:21;;;;;;;;;;;128.90;2252.80;;;;;;4939590;29;20353;-80
2023/01/26 13:05:55;;;;;;;;;;;128.90;2252.80;;;;;;4942628;29;19906;-80
2023/01/26 13:08:30;;;;;;;;;;;153.60;2252.80;;;;;;4934432;29;20365;-80
2023/01/26 13:10:56;;;;;;;;;;;128.70;2252.80;;;;;;4936904;29;19971;-80
2023/01/26 13:13:51;;;;;;;;;;;128.80;2252.80;;;;;;4920438;29;19922;-78
2023/01/26 13:16:17;;;;;;;;;;;128.60;2252.80;;;;;;4940486;28;19906;-76
2023/01/26 13:18:53;;;;;;;;;;;128.70;2252.80;;;;;;5018189;28;20241;-76
2023/01/26 13:21:45;;;;;;;;;;;128.80;2252.80;;;;;;5018019;28;19909;-78
2023/01/26 13:24:16;;;;;;;;;;;128.80;2252.80;;;;;;5014229;28;19910;-77
2023/01/26 13:26:42;;;;;;;;;;;128.80;2252.80;;;;;;5000153;28;20363;-77
2023/01/26 13:29:23;;;;;;;;;;;128.70;2252.80;;;;;;5002666;28;19952;-77
2023/01/26 13:31:49;;;;;;;;;;;128.70;2252.80;;;;;;4997565;28;20366;-77
2023/01/26 13:34:15;;;;;;;;;;;128.70;2252.80;;;;;;5023625;28;19906;-81
2023/01/26 13:36:42;;;;;;;;;;;128.60;2252.80;;;;;;5003717;28;20347;-78
2023/01/26 13:39:15;;;;;;;;;;;128.70;2252.80;;;;;;5018159;28;19944;-78
2023/01/26 13:41:46;;;;;;;;;;;128.70;2252.80;;;;;;5023268;28;19952;-79
2023/01/26 13:44:20;;;;;;;;;;;128.70;2252.80;;;;;;5007673;28;19906;-78
2023/01/26 13:46:49;;;;;;;;;;;128.50;2252.80;;;;;;4975135;28;19913;-80
2023/01/26 13:49:33;;;;;;;;;;;128.40;2252.80;;;;;;4993944;28;20325;-78
2023/01/26 13:51:59;;;;;;;;;;;128.40;2252.80;;;;;;5010827;28;19925;-77
2023/01/26 13:54:25;;;;;;;;;;;128.40;2252.80;;;;;;5000126;28;20039;-77
2023/01/26 13:57:01;;;;;;;;;;;128.20;2252.80;;;;;;4990036;28;20402;-77
2023/01/26 13:59:27;;;;;;;;;;;128.30;2252.80;;;;;;5013669;28;19924;-77
2023/01/26 14:01:53;;;;;;;;;;;128.40;2252.80;;;;;;5015923;28;19905;-78
2023/01/26 14:04:20;;;;;;;;;;;128.30;2252.80;;;;;;5016472;28;19908;-76
2023/01/26 14:07:01;;;;;;;;;;;128.30;2252.80;;;;;;5015098;28;19981;-75
2023/01/26 14:09:28;;;;;;;;;;;128.40;2252.80;;;;;;5016173;28;20190;-76
2023/01/26 14:11:58;;;;;;;;;;;128.40;2252.80;;;;;;5016289;28;19919;-76
2023/01/26 14:14:28;;;;;;;;;;;128.30;2252.80;;;;;;5012176;28;19909;-76
2023/01/26 14:16:56;;;;;;;;;;;128.00;2252.80;;;;;;5016279;28;19908;-76
2023/01/26 14:19:21;;;;;;;;;;;103.30;2227.20;;;;;;5014367;28;20036;-78
2023/01/26 14:21:53;;;;;;;;;;;103.20;2227.20;;;;;;5016494;28;19955;-76
2023/01/26 14:24:40;;;;;;;;;;;103.30;2227.20;;;;;;5016380;28;19912;-77
2023/01/26 14:27:21;;;;;;;;;;;103.20;2227.20;;;;;;5015641;28;19909;-77
2023/01/26 14:29:47;;;;;;;;;;;103.30;2227.20;;;;;;5015580;28;19909;-76
2023/01/26 14:32:14;;;;;;;;;;;103.30;2227.20;;;;;;5015873;28;20334;-76
2023/01/26 14:34:50;;;;;;;;;;;103.20;2227.20;;;;;;5015508;28;19909;-76
2023/01/26 14:37:16;;;;;;;;;;;103.10;2227.20;;;;;;5010979;28;19905;-77